sensor_id;sensor_type;location;lat;lon;timestamp;P1;durP1;ratioP1;P2;durP2;ratioP2
75035;SDS011;64247;51.540;5.854;2023-05-10T00:00:43;23.92;;;10.65;;
75035;SDS011;64247;51.540;5.854;2023-05-10T00:02:44;21.88;;;11.05;;
75035;SDS011;64247;51.540;5.854;2023-05-10T00:04:45;28.02;;;10.75;;
75035;SDS011;64247;51.540;5.854;2023-05-10T00:06:46;16.73;;;8.98;;
75035;SDS011;64247;51.540;5.854;2023-05-10T00:08:47;17.77;;;9.30;;
75035;SDS011;64247;51.540;5.854;2023-05-10T00:10:48;20.40;;;9.45;;
75035;SDS011;64247;51.540;5.854;2023-05-10T00:12:49;19.35;;;8.35;;
75035;SDS011;64247;51.540;5.854;2023-05-10T00:14:50;17.70;;;8.27;;
75035;SDS011;64247;51.540;5.854;2023-05-10T00:16:51;18.73;;;9.38;;
75035;SDS011;64247;51.540;5.854;2023-05-10T00:18:52;20.92;;;9.70;;
75035;SDS011;64247;51.540;5.854;2023-05-10T00:20:53;19.20;;;9.00;;
75035;SDS011;64247;51.540;5.854;2023-05-10T00:22:54;17.10;;;7.43;;
75035;SDS011;64247;51.540;5.854;2023-05-10T00:24:55;13.63;;;6.93;;
75035;SDS011;64247;51.540;5.854;2023-05-10T00:26:55;15.68;;;7.88;;
75035;SDS011;64247;51.540;5.854;2023-05-10T00:28:56;12.38;;;6.85;;
75035;SDS011;64247;51.540;5.854;2023-05-10T00:30:58;13.18;;;7.00;;
75035;SDS011;64247;51.540;5.854;2023-05-10T00:32:59;10.82;;;6.45;;
75035;SDS011;64247;51.540;5.854;2023-05-10T00:35:00;12.73;;;7.68;;
75035;SDS011;64247;51.540;5.854;2023-05-10T00:37:01;13.60;;;7.88;;
75035;SDS011;64247;51.540;5.854;2023-05-10T00:39:02;12.98;;;6.78;;
75035;SDS011;64247;51.540;5.854;2023-05-10T00:41:04;11.40;;;7.13;;
75035;SDS011;64247;51.540;5.854;2023-05-10T00:43:07;12.18;;;6.40;;
75035;SDS011;64247;51.540;5.854;2023-05-10T00:45:08;13.80;;;7.20;;
75035;SDS011;64247;51.540;5.854;2023-05-10T00:47:09;13.18;;;7.30;;
75035;SDS011;64247;51.540;5.854;2023-05-10T00:49:11;14.43;;;7.53;;
75035;SDS011;64247;51.540;5.854;2023-05-10T00:51:13;15.70;;;7.97;;
75035;SDS011;64247;51.540;5.854;2023-05-10T00:53:14;15.63;;;7.57;;
75035;SDS011;64247;51.540;5.854;2023-05-10T00:55:16;17.77;;;8.43;;
75035;SDS011;64247;51.540;5.854;2023-05-10T00:57:18;19.17;;;8.20;;
75035;SDS011;64247;51.540;5.854;2023-05-10T00:59:19;19.73;;;8.68;;
75035;SDS011;64247;51.540;5.854;2023-05-10T01:01:21;20.17;;;8.48;;
75035;SDS011;64247;51.540;5.854;2023-05-10T01:03:22;15.48;;;6.97;;
75035;SDS011;64247;51.540;5.854;2023-05-10T01:05:24;19.80;;;9.02;;
75035;SDS011;64247;51.540;5.854;2023-05-10T01:07:25;18.77;;;9.13;;
75035;SDS011;64247;51.540;5.854;2023-05-10T01:09:26;19.67;;;8.88;;
75035;SDS011;64247;51.540;5.854;2023-05-10T01:11:28;23.45;;;8.68;;
75035;SDS011;64247;51.540;5.854;2023-05-10T01:15:56;22.02;;;10.43;;
75035;SDS011;64247;51.540;5.854;2023-05-10T01:17:58;23.02;;;8.55;;
75035;SDS011;64247;51.540;5.854;2023-05-10T01:20:01;20.95;;;8.93;;
75035;SDS011;64247;51.540;5.854;2023-05-10T01:33:50;25.75;;;11.57;;
75035;SDS011;64247;51.540;5.854;2023-05-10T01:37:02;31.92;;;11.82;;
75035;SDS011;64247;51.540;5.854;2023-05-10T01:41:50;26.83;;;10.65;;
75035;SDS011;64247;51.540;5.854;2023-05-10T01:46:40;26.92;;;10.70;;
75035;SDS011;64247;51.540;5.854;2023-05-10T01:48:44;23.13;;;11.00;;
75035;SDS011;64247;51.540;5.854;2023-05-10T01:50:54;27.02;;;10.85;;
75035;SDS011;64247;51.540;5.854;2023-05-10T01:52:59;23.08;;;11.30;;
75035;SDS011;64247;51.540;5.854;2023-05-10T01:55:06;22.35;;;11.52;;
75035;SDS011;64247;51.540;5.854;2023-05-10T01:57:11;29.45;;;10.82;;
75035;SDS011;64247;51.540;5.854;2023-05-10T01:59:18;28.58;;;13.57;;
75035;SDS011;64247;51.540;5.854;2023-05-10T02:01:22;28.67;;;13.32;;
75035;SDS011;64247;51.540;5.854;2023-05-10T02:03:26;24.95;;;11.55;;
75035;SDS011;64247;51.540;5.854;2023-05-10T02:05:31;40.03;;;15.15;;
75035;SDS011;64247;51.540;5.854;2023-05-10T02:07:37;30.70;;;15.68;;
75035;SDS011;64247;51.540;5.854;2023-05-10T02:09:41;32.35;;;12.82;;
75035;SDS011;64247;51.540;5.854;2023-05-10T02:11:49;31.75;;;15.52;;
75035;SDS011;64247;51.540;5.854;2023-05-10T02:13:50;35.97;;;15.40;;
75035;SDS011;64247;51.540;5.854;2023-05-10T02:15:59;37.72;;;14.88;;
75035;SDS011;64247;51.540;5.854;2023-05-10T02:18:03;45.58;;;16.48;;
75035;SDS011;64247;51.540;5.854;2023-05-10T02:20:06;38.33;;;15.80;;
75035;SDS011;64247;51.540;5.854;2023-05-10T02:22:08;49.20;;;22.35;;
75035;SDS011;64247;51.540;5.854;2023-05-10T02:24:11;46.58;;;16.65;;
75035;SDS011;64247;51.540;5.854;2023-05-10T02:26:15;43.28;;;15.73;;
75035;SDS011;64247;51.540;5.854;2023-05-10T02:28:18;44.10;;;17.15;;
75035;SDS011;64247;51.540;5.854;2023-05-10T02:30:23;47.42;;;19.75;;
75035;SDS011;64247;51.540;5.854;2023-05-10T02:32:25;47.72;;;18.42;;
75035;SDS011;64247;51.540;5.854;2023-05-10T02:34:30;53.60;;;19.60;;
75035;SDS011;64247;51.540;5.854;2023-05-10T02:36:32;47.58;;;19.73;;
75035;SDS011;64247;51.540;5.854;2023-05-10T02:38:34;50.95;;;19.95;;
75035;SDS011;64247;51.540;5.854;2023-05-10T02:40:37;43.17;;;19.83;;
75035;SDS011;64247;51.540;5.854;2023-05-10T02:42:39;44.70;;;19.17;;
75035;SDS011;64247;51.540;5.854;2023-05-10T02:44:45;52.22;;;20.58;;
75035;SDS011;64247;51.540;5.854;2023-05-10T02:46:51;51.45;;;19.33;;
75035;SDS011;64247;51.540;5.854;2023-05-10T02:48:52;52.58;;;23.60;;
75035;SDS011;64247;51.540;5.854;2023-05-10T02:50:53;48.08;;;17.70;;
75035;SDS011;64247;51.540;5.854;2023-05-10T02:53:01;50.63;;;20.73;;
75035;SDS011;64247;51.540;5.854;2023-05-10T02:55:12;44.45;;;18.30;;
75035;SDS011;64247;51.540;5.854;2023-05-10T02:57:17;60.13;;;23.25;;
75035;SDS011;64247;51.540;5.854;2023-05-10T02:59:27;56.33;;;23.05;;
75035;SDS011;64247;51.540;5.854;2023-05-10T03:01:29;50.17;;;20.33;;
75035;SDS011;64247;51.540;5.854;2023-05-10T03:03:29;48.42;;;21.70;;
75035;SDS011;64247;51.540;5.854;2023-05-10T03:05:31;56.17;;;22.77;;
75035;SDS011;64247;51.540;5.854;2023-05-10T03:07:35;55.55;;;20.95;;
75035;SDS011;64247;51.540;5.854;2023-05-10T03:09:36;56.92;;;22.40;;
75035;SDS011;64247;51.540;5.854;2023-05-10T03:17:34;46.00;;;20.27;;
75035;SDS011;64247;51.540;5.854;2023-05-10T03:19:54;48.63;;;19.90;;
75035;SDS011;64247;51.540;5.854;2023-05-10T03:21:59;46.90;;;19.55;;
75035;SDS011;64247;51.540;5.854;2023-05-10T03:24:10;51.28;;;21.67;;
75035;SDS011;64247;51.540;5.854;2023-05-10T03:26:26;51.45;;;21.77;;
75035;SDS011;64247;51.540;5.854;2023-05-10T03:28:37;42.30;;;17.60;;
75035;SDS011;64247;51.540;5.854;2023-05-10T03:30:40;44.63;;;19.27;;
75035;SDS011;64247;51.540;5.854;2023-05-10T03:32:45;42.75;;;19.33;;
75035;SDS011;64247;51.540;5.854;2023-05-10T03:34:46;44.95;;;19.05;;
75035;SDS011;64247;51.540;5.854;2023-05-10T03:36:47;51.33;;;22.70;;
75035;SDS011;64247;51.540;5.854;2023-05-10T03:38:48;34.35;;;14.70;;
75035;SDS011;64247;51.540;5.854;2023-05-10T03:40:49;39.17;;;16.95;;
75035;SDS011;64247;51.540;5.854;2023-05-10T03:42:50;50.85;;;26.55;;
75035;SDS011;64247;51.540;5.854;2023-05-10T03:44:51;46.58;;;21.13;;
75035;SDS011;64247;51.540;5.854;2023-05-10T03:46:52;29.45;;;13.55;;
75035;SDS011;64247;51.540;5.854;2023-05-10T03:48:53;41.28;;;17.48;;
75035;SDS011;64247;51.540;5.854;2023-05-10T03:50:54;31.70;;;14.90;;
75035;SDS011;64247;51.540;5.854;2023-05-10T03:52:55;34.78;;;15.20;;
75035;SDS011;64247;51.540;5.854;2023-05-10T03:54:56;26.92;;;11.60;;
75035;SDS011;64247;51.540;5.854;2023-05-10T03:56:57;42.55;;;18.33;;
75035;SDS011;64247;51.540;5.854;2023-05-10T03:58:59;41.90;;;19.58;;
75035;SDS011;64247;51.540;5.854;2023-05-10T04:01:00;40.85;;;18.23;;
75035;SDS011;64247;51.540;5.854;2023-05-10T04:03:00;41.20;;;20.08;;
75035;SDS011;64247;51.540;5.854;2023-05-10T04:05:02;44.70;;;20.92;;
75035;SDS011;64247;51.540;5.854;2023-05-10T04:07:03;46.30;;;19.40;;
75035;SDS011;64247;51.540;5.854;2023-05-10T04:09:04;39.33;;;19.45;;
75035;SDS011;64247;51.540;5.854;2023-05-10T04:11:05;40.92;;;18.25;;
75035;SDS011;64247;51.540;5.854;2023-05-10T04:13:11;42.95;;;20.13;;
75035;SDS011;64247;51.540;5.854;2023-05-10T04:15:12;51.45;;;21.63;;
75035;SDS011;64247;51.540;5.854;2023-05-10T04:17:13;47.67;;;20.73;;
75035;SDS011;64247;51.540;5.854;2023-05-10T04:19:13;46.00;;;21.92;;
75035;SDS011;64247;51.540;5.854;2023-05-10T04:21:14;41.45;;;19.33;;
75035;SDS011;64247;51.540;5.854;2023-05-10T04:23:15;48.47;;;20.20;;
75035;SDS011;64247;51.540;5.854;2023-05-10T04:25:16;48.13;;;20.55;;
75035;SDS011;64247;51.540;5.854;2023-05-10T04:27:17;45.50;;;21.90;;
75035;SDS011;64247;51.540;5.854;2023-05-10T04:29:18;50.05;;;22.23;;
75035;SDS011;64247;51.540;5.854;2023-05-10T04:31:19;51.97;;;22.75;;
75035;SDS011;64247;51.540;5.854;2023-05-10T04:33:20;55.97;;;22.92;;
75035;SDS011;64247;51.540;5.854;2023-05-10T04:35:21;57.83;;;23.02;;
75035;SDS011;64247;51.540;5.854;2023-05-10T04:37:22;57.58;;;26.48;;
75035;SDS011;64247;51.540;5.854;2023-05-10T04:39:23;49.75;;;22.85;;
75035;SDS011;64247;51.540;5.854;2023-05-10T04:41:23;58.15;;;24.35;;
75035;SDS011;64247;51.540;5.854;2023-05-10T04:43:25;53.05;;;21.33;;
75035;SDS011;64247;51.540;5.854;2023-05-10T04:45:26;49.22;;;20.55;;
75035;SDS011;64247;51.540;5.854;2023-05-10T04:47:27;57.22;;;23.83;;
75035;SDS011;64247;51.540;5.854;2023-05-10T04:49:28;53.85;;;24.00;;
75035;SDS011;64247;51.540;5.854;2023-05-10T04:51:30;52.38;;;22.13;;
75035;SDS011;64247;51.540;5.854;2023-05-10T04:53:31;47.70;;;20.55;;
75035;SDS011;64247;51.540;5.854;2023-05-10T04:55:32;41.17;;;18.65;;
75035;SDS011;64247;51.540;5.854;2023-05-10T04:57:33;36.85;;;17.92;;
75035;SDS011;64247;51.540;5.854;2023-05-10T04:59:35;39.58;;;19.35;;
75035;SDS011;64247;51.540;5.854;2023-05-10T05:01:37;40.15;;;18.58;;
75035;SDS011;64247;51.540;5.854;2023-05-10T05:03:38;45.13;;;21.65;;
75035;SDS011;64247;51.540;5.854;2023-05-10T05:05:39;42.33;;;21.15;;
75035;SDS011;64247;51.540;5.854;2023-05-10T05:07:40;31.17;;;14.77;;
75035;SDS011;64247;51.540;5.854;2023-05-10T05:09:41;53.60;;;22.00;;
75035;SDS011;64247;51.540;5.854;2023-05-10T05:11:42;31.73;;;14.35;;
75035;SDS011;64247;51.540;5.854;2023-05-10T05:13:43;41.53;;;18.38;;
75035;SDS011;64247;51.540;5.854;2023-05-10T05:15:44;42.63;;;16.80;;
75035;SDS011;64247;51.540;5.854;2023-05-10T05:17:44;44.78;;;19.08;;
75035;SDS011;64247;51.540;5.854;2023-05-10T05:19:45;50.42;;;21.67;;
75035;SDS011;64247;51.540;5.854;2023-05-10T05:21:46;57.33;;;21.33;;
75035;SDS011;64247;51.540;5.854;2023-05-10T05:23:47;33.55;;;15.82;;
75035;SDS011;64247;51.540;5.854;2023-05-10T05:25:48;61.38;;;21.08;;
75035;SDS011;64247;51.540;5.854;2023-05-10T05:27:49;51.63;;;20.35;;
75035;SDS011;64247;51.540;5.854;2023-05-10T05:29:50;51.70;;;17.50;;
75035;SDS011;64247;51.540;5.854;2023-05-10T05:31:53;45.00;;;18.05;;
75035;SDS011;64247;51.540;5.854;2023-05-10T05:33:54;46.03;;;17.20;;
75035;SDS011;64247;51.540;5.854;2023-05-10T05:35:55;44.47;;;19.58;;
75035;SDS011;64247;51.540;5.854;2023-05-10T05:37:57;43.50;;;18.60;;
75035;SDS011;64247;51.540;5.854;2023-05-10T05:39:57;49.97;;;22.15;;
75035;SDS011;64247;51.540;5.854;2023-05-10T05:41:58;34.00;;;15.73;;
75035;SDS011;64247;51.540;5.854;2023-05-10T05:43:59;46.13;;;15.85;;
75035;SDS011;64247;51.540;5.854;2023-05-10T05:46:00;34.55;;;14.55;;
75035;SDS011;64247;51.540;5.854;2023-05-10T05:48:01;36.17;;;15.00;;
75035;SDS011;64247;51.540;5.854;2023-05-10T05:50:01;37.15;;;17.25;;
75035;SDS011;64247;51.540;5.854;2023-05-10T05:52:03;38.08;;;14.85;;
75035;SDS011;64247;51.540;5.854;2023-05-10T05:54:04;41.75;;;17.25;;
75035;SDS011;64247;51.540;5.854;2023-05-10T05:56:05;44.92;;;18.13;;
75035;SDS011;64247;51.540;5.854;2023-05-10T05:58:06;48.30;;;19.45;;
75035;SDS011;64247;51.540;5.854;2023-05-10T06:00:07;42.83;;;16.88;;
75035;SDS011;64247;51.540;5.854;2023-05-10T06:04:15;36.85;;;16.20;;
75035;SDS011;64247;51.540;5.854;2023-05-10T06:06:17;32.50;;;13.13;;
75035;SDS011;64247;51.540;5.854;2023-05-10T06:08:17;32.80;;;14.07;;
75035;SDS011;64247;51.540;5.854;2023-05-10T06:10:18;30.65;;;11.65;;
75035;SDS011;64247;51.540;5.854;2023-05-10T06:12:19;36.10;;;16.27;;
75035;SDS011;64247;51.540;5.854;2023-05-10T06:14:20;26.58;;;12.73;;
75035;SDS011;64247;51.540;5.854;2023-05-10T06:16:21;37.80;;;15.93;;
75035;SDS011;64247;51.540;5.854;2023-05-10T06:18:22;29.85;;;15.75;;
75035;SDS011;64247;51.540;5.854;2023-05-10T06:20:23;21.10;;;10.05;;
75035;SDS011;64247;51.540;5.854;2023-05-10T06:22:24;31.30;;;15.00;;
75035;SDS011;64247;51.540;5.854;2023-05-10T06:24:25;27.73;;;13.55;;
75035;SDS011;64247;51.540;5.854;2023-05-10T06:26:27;33.70;;;14.23;;
75035;SDS011;64247;51.540;5.854;2023-05-10T06:28:28;20.13;;;10.10;;
75035;SDS011;64247;51.540;5.854;2023-05-10T06:30:29;23.73;;;10.48;;
75035;SDS011;64247;51.540;5.854;2023-05-10T06:32:30;21.02;;;9.77;;
75035;SDS011;64247;51.540;5.854;2023-05-10T06:34:30;27.60;;;12.00;;
75035;SDS011;64247;51.540;5.854;2023-05-10T06:36:31;19.40;;;9.38;;
75035;SDS011;64247;51.540;5.854;2023-05-10T06:38:32;20.52;;;8.50;;
75035;SDS011;64247;51.540;5.854;2023-05-10T06:40:33;20.05;;;8.35;;
75035;SDS011;64247;51.540;5.854;2023-05-10T06:42:34;28.65;;;12.05;;
75035;SDS011;64247;51.540;5.854;2023-05-10T06:44:36;27.30;;;13.00;;
75035;SDS011;64247;51.540;5.854;2023-05-10T06:46:37;25.20;;;10.15;;
75035;SDS011;64247;51.540;5.854;2023-05-10T06:48:38;28.02;;;13.63;;
75035;SDS011;64247;51.540;5.854;2023-05-10T06:50:39;27.38;;;13.13;;
75035;SDS011;64247;51.540;5.854;2023-05-10T06:52:40;19.95;;;9.35;;
75035;SDS011;64247;51.540;5.854;2023-05-10T06:54:41;29.98;;;13.25;;
75035;SDS011;64247;51.540;5.854;2023-05-10T06:56:42;28.48;;;15.05;;
75035;SDS011;64247;51.540;5.854;2023-05-10T06:58:43;26.55;;;15.65;;
75035;SDS011;64247;51.540;5.854;2023-05-10T07:00:43;33.15;;;14.68;;
75035;SDS011;64247;51.540;5.854;2023-05-10T07:02:46;23.75;;;12.68;;
75035;SDS011;64247;51.540;5.854;2023-05-10T07:04:47;24.25;;;11.07;;
75035;SDS011;64247;51.540;5.854;2023-05-10T07:06:48;21.55;;;10.52;;
75035;SDS011;64247;51.540;5.854;2023-05-10T07:08:49;25.15;;;12.63;;
75035;SDS011;64247;51.540;5.854;2023-05-10T07:10:50;28.02;;;12.65;;
75035;SDS011;64247;51.540;5.854;2023-05-10T07:12:51;30.05;;;13.23;;
75035;SDS011;64247;51.540;5.854;2023-05-10T07:14:52;24.08;;;13.25;;
75035;SDS011;64247;51.540;5.854;2023-05-10T07:16:53;30.10;;;14.23;;
75035;SDS011;64247;51.540;5.854;2023-05-10T07:18:54;25.23;;;12.48;;
75035;SDS011;64247;51.540;5.854;2023-05-10T07:20:55;24.20;;;13.70;;
75035;SDS011;64247;51.540;5.854;2023-05-10T07:22:57;17.00;;;8.80;;
75035;SDS011;64247;51.540;5.854;2023-05-10T07:24:58;24.60;;;11.27;;
75035;SDS011;64247;51.540;5.854;2023-05-10T07:26:59;24.05;;;12.77;;
75035;SDS011;64247;51.540;5.854;2023-05-10T07:29:00;26.92;;;13.60;;
75035;SDS011;64247;51.540;5.854;2023-05-10T07:31:01;21.88;;;13.10;;
75035;SDS011;64247;51.540;5.854;2023-05-10T07:33:02;23.42;;;11.40;;
75035;SDS011;64247;51.540;5.854;2023-05-10T07:35:03;24.92;;;13.15;;
75035;SDS011;64247;51.540;5.854;2023-05-10T07:37:04;24.10;;;13.07;;
75035;SDS011;64247;51.540;5.854;2023-05-10T07:39:06;23.85;;;11.77;;
75035;SDS011;64247;51.540;5.854;2023-05-10T07:41:07;24.90;;;12.15;;
75035;SDS011;64247;51.540;5.854;2023-05-10T07:43:08;23.50;;;11.25;;
75035;SDS011;64247;51.540;5.854;2023-05-10T07:45:09;24.60;;;14.13;;
75035;SDS011;64247;51.540;5.854;2023-05-10T07:47:10;24.27;;;12.65;;
75035;SDS011;64247;51.540;5.854;2023-05-10T07:49:11;27.90;;;13.57;;
75035;SDS011;64247;51.540;5.854;2023-05-10T07:51:12;26.20;;;13.60;;
75035;SDS011;64247;51.540;5.854;2023-05-10T07:53:13;32.60;;;15.38;;
75035;SDS011;64247;51.540;5.854;2023-05-10T07:55:14;28.27;;;13.40;;
75035;SDS011;64247;51.540;5.854;2023-05-10T07:57:15;28.95;;;15.23;;
75035;SDS011;64247;51.540;5.854;2023-05-10T07:59:17;25.88;;;12.90;;
75035;SDS011;64247;51.540;5.854;2023-05-10T08:01:18;28.90;;;13.65;;
75035;SDS011;64247;51.540;5.854;2023-05-10T08:03:20;28.65;;;14.43;;
75035;SDS011;64247;51.540;5.854;2023-05-10T08:05:21;33.10;;;16.65;;
75035;SDS011;64247;51.540;5.854;2023-05-10T08:07:22;30.50;;;16.95;;
75035;SDS011;64247;51.540;5.854;2023-05-10T08:09:24;31.23;;;15.00;;
75035;SDS011;64247;51.540;5.854;2023-05-10T08:11:25;32.35;;;16.30;;
75035;SDS011;64247;51.540;5.854;2023-05-10T08:13:28;29.13;;;14.30;;
75035;SDS011;64247;51.540;5.854;2023-05-10T08:15:28;35.90;;;17.02;;
75035;SDS011;64247;51.540;5.854;2023-05-10T08:17:29;31.50;;;15.15;;
75035;SDS011;64247;51.540;5.854;2023-05-10T08:19:30;37.08;;;16.50;;
75035;SDS011;64247;51.540;5.854;2023-05-10T08:21:31;32.78;;;16.00;;
75035;SDS011;64247;51.540;5.854;2023-05-10T08:23:32;30.58;;;15.80;;
75035;SDS011;64247;51.540;5.854;2023-05-10T08:25:33;31.63;;;17.17;;
75035;SDS011;64247;51.540;5.854;2023-05-10T08:27:34;31.88;;;15.50;;
75035;SDS011;64247;51.540;5.854;2023-05-10T08:29:35;36.80;;;16.13;;
75035;SDS011;64247;51.540;5.854;2023-05-10T08:31:36;32.70;;;13.48;;
75035;SDS011;64247;51.540;5.854;2023-05-10T08:33:37;29.13;;;14.25;;
75035;SDS011;64247;51.540;5.854;2023-05-10T08:35:38;23.60;;;9.90;;
75035;SDS011;64247;51.540;5.854;2023-05-10T08:37:38;25.33;;;13.15;;
75035;SDS011;64247;51.540;5.854;2023-05-10T08:39:39;16.35;;;9.77;;
75035;SDS011;64247;51.540;5.854;2023-05-10T08:41:40;26.40;;;14.55;;
75035;SDS011;64247;51.540;5.854;2023-05-10T08:43:45;32.28;;;16.00;;
75035;SDS011;64247;51.540;5.854;2023-05-10T08:45:46;24.20;;;13.57;;
75035;SDS011;64247;51.540;5.854;2023-05-10T08:47:50;30.08;;;13.50;;
75035;SDS011;64247;51.540;5.854;2023-05-10T08:49:53;33.70;;;15.38;;
75035;SDS011;64247;51.540;5.854;2023-05-10T08:51:55;31.83;;;15.82;;
75035;SDS011;64247;51.540;5.854;2023-05-10T08:53:59;33.03;;;16.23;;
75035;SDS011;64247;51.540;5.854;2023-05-10T08:56:01;32.22;;;16.35;;
75035;SDS011;64247;51.540;5.854;2023-05-10T08:58:06;26.95;;;13.05;;
75035;SDS011;64247;51.540;5.854;2023-05-10T09:00:08;27.20;;;12.63;;
75035;SDS011;64247;51.540;5.854;2023-05-10T09:02:10;24.67;;;14.15;;
75035;SDS011;64247;51.540;5.854;2023-05-10T09:04:14;29.17;;;14.95;;
75035;SDS011;64247;51.540;5.854;2023-05-10T09:06:14;31.58;;;14.60;;
75035;SDS011;64247;51.540;5.854;2023-05-10T09:08:16;24.13;;;12.18;;
75035;SDS011;64247;51.540;5.854;2023-05-10T09:10:18;27.48;;;14.80;;
75035;SDS011;64247;51.540;5.854;2023-05-10T09:12:20;20.17;;;10.95;;
75035;SDS011;64247;51.540;5.854;2023-05-10T09:14:21;28.23;;;15.00;;
75035;SDS011;64247;51.540;5.854;2023-05-10T09:16:25;19.00;;;10.40;;
75035;SDS011;64247;51.540;5.854;2023-05-10T09:18:26;31.88;;;15.40;;
75035;SDS011;64247;51.540;5.854;2023-05-10T09:20:27;25.00;;;12.95;;
75035;SDS011;64247;51.540;5.854;2023-05-10T09:22:28;27.98;;;14.30;;
75035;SDS011;64247;51.540;5.854;2023-05-10T09:24:31;27.02;;;14.38;;
75035;SDS011;64247;51.540;5.854;2023-05-10T09:26:31;23.63;;;13.48;;
75035;SDS011;64247;51.540;5.854;2023-05-10T09:28:34;17.85;;;7.47;;
75035;SDS011;64247;51.540;5.854;2023-05-10T09:30:53;16.23;;;9.80;;
75035;SDS011;64247;51.540;5.854;2023-05-10T09:32:56;11.95;;;7.18;;
75035;SDS011;64247;51.540;5.854;2023-05-10T09:35:05;17.75;;;11.13;;
75035;SDS011;64247;51.540;5.854;2023-05-10T09:37:11;19.25;;;10.82;;
75035;SDS011;64247;51.540;5.854;2023-05-10T09:39:12;14.82;;;9.43;;
75035;SDS011;64247;51.540;5.854;2023-05-10T09:41:16;16.52;;;10.52;;
75035;SDS011;64247;51.540;5.854;2023-05-10T09:43:23;17.13;;;8.23;;
75035;SDS011;64247;51.540;5.854;2023-05-10T09:45:24;13.50;;;8.15;;
75035;SDS011;64247;51.540;5.854;2023-05-10T09:47:28;9.48;;;5.53;;
75035;SDS011;64247;51.540;5.854;2023-05-10T09:49:29;14.40;;;9.35;;
75035;SDS011;64247;51.540;5.854;2023-05-10T09:51:31;10.23;;;5.35;;
75035;SDS011;64247;51.540;5.854;2023-05-10T09:53:32;10.32;;;6.68;;
75035;SDS011;64247;51.540;5.854;2023-05-10T09:55:42;10.35;;;6.05;;
75035;SDS011;64247;51.540;5.854;2023-05-10T09:59:48;9.70;;;5.25;;
75035;SDS011;64247;51.540;5.854;2023-05-10T10:01:51;7.03;;;4.80;;
75035;SDS011;64247;51.540;5.854;2023-05-10T10:03:52;8.65;;;6.50;;
75035;SDS011;64247;51.540;5.854;2023-05-10T10:05:54;7.78;;;5.43;;
75035;SDS011;64247;51.540;5.854;2023-05-10T10:07:59;9.32;;;5.57;;
75035;SDS011;64247;51.540;5.854;2023-05-10T10:10:04;10.07;;;6.05;;
75035;SDS011;64247;51.540;5.854;2023-05-10T10:12:05;7.93;;;5.28;;
75035;SDS011;64247;51.540;5.854;2023-05-10T10:14:06;11.63;;;5.88;;
75035;SDS011;64247;51.540;5.854;2023-05-10T10:16:08;10.05;;;7.45;;
75035;SDS011;64247;51.540;5.854;2023-05-10T10:18:12;10.50;;;7.57;;
75035;SDS011;64247;51.540;5.854;2023-05-10T10:20:15;10.32;;;7.80;;
75035;SDS011;64247;51.540;5.854;2023-05-10T10:22:18;8.23;;;6.00;;
75035;SDS011;64247;51.540;5.854;2023-05-10T10:24:19;10.07;;;7.35;;
75035;SDS011;64247;51.540;5.854;2023-05-10T10:26:20;10.57;;;7.25;;
75035;SDS011;64247;51.540;5.854;2023-05-10T10:31:46;14.18;;;7.47;;
75035;SDS011;64247;51.540;5.854;2023-05-10T10:34:09;10.35;;;6.43;;
75035;SDS011;64247;51.540;5.854;2023-05-10T10:36:19;10.93;;;6.55;;
75035;SDS011;64247;51.540;5.854;2023-05-10T10:38:21;7.60;;;5.93;;
75035;SDS011;64247;51.540;5.854;2023-05-10T10:42:48;13.50;;;7.22;;
75035;SDS011;64247;51.540;5.854;2023-05-10T10:45:08;8.40;;;6.60;;
75035;SDS011;64247;51.540;5.854;2023-05-10T10:50:02;8.40;;;6.10;;
75035;SDS011;64247;51.540;5.854;2023-05-10T10:52:24;9.55;;;6.20;;
75035;SDS011;64247;51.540;5.854;2023-05-10T10:54:34;6.07;;;4.78;;
75035;SDS011;64247;51.540;5.854;2023-05-10T10:56:35;9.45;;;6.30;;
75035;SDS011;64247;51.540;5.854;2023-05-10T10:58:37;9.90;;;6.50;;
75035;SDS011;64247;51.540;5.854;2023-05-10T11:00:39;9.63;;;5.97;;
75035;SDS011;64247;51.540;5.854;2023-05-10T11:10:21;8.07;;;6.68;;
75035;SDS011;64247;51.540;5.854;2023-05-10T11:12:26;10.90;;;6.03;;
75035;SDS011;64247;51.540;5.854;2023-05-10T11:14:27;9.88;;;7.40;;
75035;SDS011;64247;51.540;5.854;2023-05-10T11:16:44;11.80;;;7.32;;
75035;SDS011;64247;51.540;5.854;2023-05-10T11:21:10;12.60;;;7.60;;
75035;SDS011;64247;51.540;5.854;2023-05-10T11:23:11;12.93;;;8.00;;
75035;SDS011;64247;51.540;5.854;2023-05-10T11:25:18;12.23;;;7.88;;
75035;SDS011;64247;51.540;5.854;2023-05-10T11:27:20;11.80;;;8.45;;
75035;SDS011;64247;51.540;5.854;2023-05-10T11:29:21;12.20;;;8.18;;
75035;SDS011;64247;51.540;5.854;2023-05-10T11:31:23;13.88;;;7.90;;
75035;SDS011;64247;51.540;5.854;2023-05-10T11:33:26;11.50;;;7.97;;
75035;SDS011;64247;51.540;5.854;2023-05-10T11:35:27;12.23;;;9.00;;
75035;SDS011;64247;51.540;5.854;2023-05-10T11:37:28;11.10;;;7.07;;
75035;SDS011;64247;51.540;5.854;2023-05-10T11:39:34;12.68;;;7.35;;
75035;SDS011;64247;51.540;5.854;2023-05-10T11:41:35;9.40;;;6.53;;
75035;SDS011;64247;51.540;5.854;2023-05-10T11:43:36;9.48;;;6.25;;
75035;SDS011;64247;51.540;5.854;2023-05-10T11:45:39;8.38;;;5.93;;
75035;SDS011;64247;51.540;5.854;2023-05-10T11:47:41;10.55;;;7.07;;
75035;SDS011;64247;51.540;5.854;2023-05-10T11:49:44;9.95;;;6.45;;
75035;SDS011;64247;51.540;5.854;2023-05-10T11:51:46;10.07;;;6.00;;
75035;SDS011;64247;51.540;5.854;2023-05-10T11:53:47;9.18;;;6.28;;
75035;SDS011;64247;51.540;5.854;2023-05-10T11:55:52;9.48;;;6.95;;
75035;SDS011;64247;51.540;5.854;2023-05-10T11:57:54;8.75;;;7.38;;
75035;SDS011;64247;51.540;5.854;2023-05-10T11:59:56;10.93;;;7.20;;
75035;SDS011;64247;51.540;5.854;2023-05-10T12:01:57;9.98;;;6.57;;
75035;SDS011;64247;51.540;5.854;2023-05-10T12:03:58;7.32;;;6.28;;
75035;SDS011;64247;51.540;5.854;2023-05-10T12:06:01;10.35;;;7.15;;
75035;SDS011;64247;51.540;5.854;2023-05-10T12:08:15;8.40;;;6.45;;
75035;SDS011;64247;51.540;5.854;2023-05-10T12:10:26;11.63;;;7.53;;
75035;SDS011;64247;51.540;5.854;2023-05-10T12:12:27;7.13;;;6.07;;
75035;SDS011;64247;51.540;5.854;2023-05-10T12:14:38;8.32;;;4.80;;
75035;SDS011;64247;51.540;5.854;2023-05-10T12:16:39;8.07;;;5.10;;
75035;SDS011;64247;51.540;5.854;2023-05-10T12:18:40;10.07;;;6.60;;
75035;SDS011;64247;51.540;5.854;2023-05-10T12:20:42;13.43;;;8.60;;
75035;SDS011;64247;51.540;5.854;2023-05-10T12:22:53;17.00;;;9.75;;
75035;SDS011;64247;51.540;5.854;2023-05-10T12:24:58;19.10;;;8.70;;
75035;SDS011;64247;51.540;5.854;2023-05-10T12:26:59;15.65;;;9.35;;
75035;SDS011;64247;51.540;5.854;2023-05-10T12:29:16;8.70;;;6.00;;
75035;SDS011;64247;51.540;5.854;2023-05-10T12:31:20;10.77;;;6.82;;
75035;SDS011;64247;51.540;5.854;2023-05-10T12:33:21;11.77;;;6.30;;
75035;SDS011;64247;51.540;5.854;2023-05-10T12:35:22;12.52;;;8.07;;
75035;SDS011;64247;51.540;5.854;2023-05-10T12:37:27;18.55;;;10.60;;
75035;SDS011;64247;51.540;5.854;2023-05-10T12:39:41;13.27;;;8.55;;
75035;SDS011;64247;51.540;5.854;2023-05-10T12:41:44;14.07;;;9.10;;
75035;SDS011;64247;51.540;5.854;2023-05-10T12:43:45;12.75;;;8.15;;
75035;SDS011;64247;51.540;5.854;2023-05-10T12:45:46;14.38;;;8.00;;
75035;SDS011;64247;51.540;5.854;2023-05-10T12:47:48;8.75;;;6.40;;
75035;SDS011;64247;51.540;5.854;2023-05-10T12:49:49;7.45;;;5.82;;
75035;SDS011;64247;51.540;5.854;2023-05-10T12:51:51;6.95;;;4.68;;